Time;durP1;ratioP1;P1;durP2;ratioP2;P2;SDS_P1;SDS_P2;PMS_P1;PMS_P2;Temp;Humidity;BMP_temperature;BMP_pressure;BME280_temperature;BME280_humidity;BME280_pressure;Samples;Min_cycle;Max_cycle;Signal;HPM_P1;HPM_P2
2021/04/10 00:02:13;;;;;;;32.38;24.92;;;;;;;;;;5014856;28;20098;-83
2021/04/10 00:04:40;;;;;;;38.67;27.63;;;;;;;;;;5013740;28;20018;-81
2021/04/10 00:07:06;;;;;;;35.83;26.73;;;;;;;;;;5013573;28;20018;-80
2021/04/10 00:09:31;;;;;;;43.58;31.00;;;;;;;;;;5013711;28;20037;-79
2021/04/10 00:11:59;;;;;;;40.13;28.70;;;;;;;;;;5013660;28;20029;-82
2021/04/10 00:14:24;;;;;;;41.67;30.48;;;;;;;;;;5013892;28;20021;-82
2021/04/10 00:16:50;;;;;;;26.45;22.48;;;;;;;;;;5013808;28;20041;-82
2021/04/10 00:19:15;;;;;;;25.67;22.77;;;;;;;;;;5021625;28;20017;-82
2021/04/10 00:21:40;;;;;;;30.42;26.25;;;;;;;;;;5015689;28;20030;-81
2021/04/10 00:24:09;;;;;;;39.33;28.17;;;;;;;;;;5033166;28;20032;-83
2021/04/10 00:26:34;;;;;;;37.78;28.30;;;;;;;;;;5033093;28;20414;-82
2021/04/10 00:28:59;;;;;;;18.88;16.58;;;;;;;;;;5033209;28;20045;-82
2021/04/10 00:31:24;;;;;;;28.30;22.52;;;;;;;;;;5015810;28;20397;-82
2021/04/10 00:33:52;;;;;;;25.52;20.85;;;;;;;;;;5034190;28;20014;-82
2021/04/10 00:36:17;;;;;;;26.65;22.52;;;;;;;;;;5019344;28;20029;-82
2021/04/10 00:38:42;;;;;;;26.63;21.85;;;;;;;;;;5036803;28;20501;-82
2021/04/10 00:41:08;;;;;;;26.05;20.65;;;;;;;;;;5004605;28;20442;-83
2021/04/10 00:43:33;;;;;;;22.25;18.67;;;;;;;;;;5017173;28;20101;-82
2021/04/10 00:45:59;;;;;;;28.33;22.65;;;;;;;;;;4999486;28;20097;-82
2021/04/10 00:48:24;;;;;;;26.33;21.35;;;;;;;;;;5016745;28;20045;-82
2021/04/10 00:50:55;;;;;;;32.05;21.67;;;;;;;;;;5016877;28;20033;-82
2021/04/10 00:53:22;;;;;;;28.25;23.10;;;;;;;;;;5016915;28;20101;-79
2021/04/10 00:55:48;;;;;;;27.55;21.20;;;;;;;;;;5016654;28;20037;-82
2021/04/10 00:58:13;;;;;;;28.10;21.20;;;;;;;;;;5016716;28;20026;-83
2021/04/10 01:00:42;;;;;;;33.00;23.17;;;;;;;;;;5022944;28;20110;-83
2021/04/10 01:03:07;;;;;;;29.10;23.98;;;;;;;;;;5016605;28;20089;-83
2021/04/10 01:05:32;;;;;;;36.22;25.77;;;;;;;;;;5021491;28;20034;-83
2021/04/10 01:07:58;;;;;;;27.20;23.67;;;;;;;;;;5016600;28;20014;-83
2021/04/10 01:10:23;;;;;;;28.90;23.92;;;;;;;;;;5015455;28;20516;-84
2021/04/10 01:12:49;;;;;;;29.00;23.48;;;;;;;;;;5013481;28;20029;-83
2021/04/10 01:15:21;;;;;;;32.58;25.77;;;;;;;;;;5036281;28;20044;-83
2021/04/10 01:17:57;;;;;;;34.67;26.55;;;;;;;;;;5036088;28;20090;-84
2021/04/10 01:20:33;;;;;;;33.35;25.17;;;;;;;;;;5036091;28;20025;-83
2021/04/10 01:23:10;;;;;;;31.20;25.00;;;;;;;;;;5036151;28;20025;-83
2021/04/10 01:25:58;;;;;;;31.88;25.75;;;;;;;;;;5035815;28;20369;-83
2021/04/10 01:28:43;;;;;;;33.80;23.70;;;;;;;;;;5030153;28;20032;-83
2021/04/10 01:31:08;;;;;;;30.65;25.80;;;;;;;;;;5035882;28;20151;-82
2021/04/10 01:33:36;;;;;;;33.15;25.88;;;;;;;;;;5018361;28;20530;-82
2021/04/10 01:36:02;;;;;;;27.60;22.20;;;;;;;;;;5018169;28;20395;-83
2021/04/10 01:38:30;;;;;;;37.63;27.83;;;;;;;;;;5035680;28;20032;-83
2021/04/10 01:40:57;;;;;;;24.95;21.60;;;;;;;;;;5035768;28;20100;-83
2021/04/10 01:43:23;;;;;;;25.05;22.15;;;;;;;;;;5035633;28;20026;-82
2021/04/10 01:45:49;;;;;;;35.60;27.33;;;;;;;;;;5035119;28;20105;-80
2021/04/10 01:48:20;;;;;;;36.28;27.40;;;;;;;;;;5035378;28;20052;-83
2021/04/10 01:50:46;;;;;;;25.27;21.65;;;;;;;;;;5035459;28;20022;-83
2021/04/10 01:53:11;;;;;;;34.13;26.02;;;;;;;;;;5035404;28;20079;-83
2021/04/10 01:55:38;;;;;;;34.17;23.02;;;;;;;;;;5035366;28;20017;-82
2021/04/10 01:58:04;;;;;;;32.05;25.20;;;;;;;;;;5017788;28;20021;-82
2021/04/10 02:00:33;;;;;;;22.95;20.10;;;;;;;;;;5035298;28;20036;-83
2021/04/10 02:03:03;;;;;;;23.50;20.45;;;;;;;;;;5035171;28;20026;-83
2021/04/10 02:05:28;;;;;;;27.58;20.92;;;;;;;;;;5035111;28;20022;-83
2021/04/10 02:07:56;;;;;;;25.33;21.67;;;;;;;;;;5017727;28;20090;-82
2021/04/10 02:10:23;;;;;;;24.67;22.05;;;;;;;;;;5035085;28;20025;-83
2021/04/10 02:12:50;;;;;;;36.92;26.85;;;;;;;;;;5017533;28;20056;-82
2021/04/10 02:15:17;;;;;;;38.22;28.15;;;;;;;;;;5035113;28;20048;-83
2021/04/10 02:17:43;;;;;;;24.63;22.00;;;;;;;;;;5035098;28;20076;-84
2021/04/10 02:20:12;;;;;;;29.88;25.88;;;;;;;;;;5034933;28;20036;-83
2021/04/10 02:22:43;;;;;;;25.15;22.35;;;;;;;;;;5034902;28;20024;-84
2021/04/10 02:25:09;;;;;;;28.00;22.73;;;;;;;;;;5034741;28;20021;-83
2021/04/10 02:27:34;;;;;;;29.35;25.20;;;;;;;;;;5017261;28;20018;-83
2021/04/10 02:30:02;;;;;;;26.17;22.50;;;;;;;;;;5034795;28;20109;-83
2021/04/10 02:32:35;;;;;;;27.73;22.50;;;;;;;;;;5034759;28;20014;-83
2021/04/10 02:35:29;;;;;;;26.42;23.42;;;;;;;;;;5017006;28;20036;-83
2021/04/10 02:37:55;;;;;;;27.60;23.73;;;;;;;;;;5033076;28;20049;-83
2021/04/10 02:40:21;;;;;;;33.03;25.92;;;;;;;;;;5034595;28;20401;-83
2021/04/10 02:42:47;;;;;;;34.15;28.38;;;;;;;;;;5034401;28;20032;-83
2021/04/10 02:45:15;;;;;;;33.50;26.85;;;;;;;;;;5016986;28;20346;-82
2021/04/10 02:47:42;;;;;;;31.58;26.27;;;;;;;;;;5034219;28;20073;-83
2021/04/10 02:50:08;;;;;;;35.00;27.83;;;;;;;;;;5034366;28;20022;-83
2021/04/10 02:52:41;;;;;;;36.90;27.80;;;;;;;;;;5034357;28;20029;-84
2021/04/10 02:55:07;;;;;;;44.83;32.92;;;;;;;;;;5033828;28;20445;-85
2021/04/10 02:57:33;;;;;;;31.23;26.67;;;;;;;;;;5033554;28;20021;-86
2021/04/10 02:59:59;;;;;;;39.47;30.13;;;;;;;;;;5016678;28;20078;-80
2021/04/10 03:02:24;;;;;;;36.17;28.30;;;;;;;;;;5041129;28;20021;-80
2021/04/10 03:04:50;;;;;;;46.08;32.92;;;;;;;;;;5033918;28;20037;-81
2021/04/10 03:07:17;;;;;;;37.75;31.65;;;;;;;;;;5016672;28;20053;-84
2021/04/10 03:09:43;;;;;;;35.30;29.13;;;;;;;;;;5016739;28;20095;-82
2021/04/10 03:12:18;;;;;;;45.92;33.72;;;;;;;;;;5016511;28;20013;-83
2021/04/10 03:14:44;;;;;;;41.10;29.80;;;;;;;;;;5033998;28;20060;-84
2021/04/10 03:17:13;;;;;;;32.28;28.48;;;;;;;;;;5033861;28;20026;-85
2021/04/10 03:19:39;;;;;;;38.78;29.50;;;;;;;;;;5033938;28;20160;-83
2021/04/10 03:22:07;;;;;;;34.60;28.42;;;;;;;;;;5033611;28;20418;-83
2021/04/10 03:24:32;;;;;;;39.75;30.33;;;;;;;;;;5033632;28;20053;-83
2021/04/10 03:26:58;;;;;;;36.13;28.15;;;;;;;;;;5033682;28;20099;-83
2021/04/10 03:29:23;;;;;;;34.35;28.52;;;;;;;;;;5033738;28;20013;-83
2021/04/10 03:31:51;;;;;;;33.22;29.08;;;;;;;;;;5033847;28;20403;-83
2021/04/10 03:34:16;;;;;;;28.67;24.90;;;;;;;;;;5033664;28;20358;-83
2021/04/10 03:36:42;;;;;;;41.95;30.98;;;;;;;;;;5033763;28;20021;-83
2021/04/10 03:39:07;;;;;;;30.30;25.33;;;;;;;;;;5033651;28;20043;-83
2021/04/10 03:41:34;;;;;;;39.92;30.95;;;;;;;;;;5033705;28;20383;-83
2021/04/10 03:43:59;;;;;;;34.13;27.10;;;;;;;;;;5016195;28;20040;-83
2021/04/10 03:46:25;;;;;;;50.42;32.47;;;;;;;;;;5033382;28;20376;-82
2021/04/10 03:48:52;;;;;;;40.05;30.80;;;;;;;;;;5033626;28;20347;-83
2021/04/10 03:51:17;;;;;;;38.67;30.50;;;;;;;;;;5033633;28;20037;-83
2021/04/10 03:53:43;;;;;;;36.17;28.30;;;;;;;;;;5016036;28;20472;-83
2021/04/10 03:56:09;;;;;;;33.85;26.75;;;;;;;;;;5016921;28;20442;-91
2021/04/10 03:58:34;;;;;;;34.90;27.00;;;;;;;;;;5033929;28;20064;-91
2021/04/10 04:01:02;;;;;;;30.50;27.05;;;;;;;;;;5033955;28;20112;-88
2021/04/10 04:03:27;;;;;;;40.55;30.55;;;;;;;;;;5033764;28;20032;-88
2021/04/10 04:05:55;;;;;;;32.50;27.27;;;;;;;;;;5016502;28;20128;-89
2021/04/10 04:08:20;;;;;;;31.30;26.70;;;;;;;;;;5012184;28;20025;-89
2021/04/10 04:10:45;;;;;;;41.63;31.13;;;;;;;;;;5037849;28;20024;-90
2021/04/10 04:13:10;;;;;;;38.10;29.88;;;;;;;;;;5019940;28;20435;-89
2021/04/10 04:15:36;;;;;;;40.33;30.80;;;;;;;;;;5017920;28;20581;-89
2021/04/10 04:18:01;;;;;;;48.13;32.42;;;;;;;;;;5017957;28;20443;-89
2021/04/10 04:20:26;;;;;;;42.55;31.15;;;;;;;;;;5017852;28;20030;-89
2021/04/10 04:22:51;;;;;;;38.03;30.45;;;;;;;;;;5017861;28;20482;-89
2021/04/10 04:25:17;;;;;;;37.40;29.92;;;;;;;;;;5000399;28;20021;-90
2021/04/10 04:27:44;;;;;;;35.65;29.17;;;;;;;;;;5017742;28;20029;-88
2021/04/10 04:30:14;;;;;;;40.45;31.58;;;;;;;;;;5017666;28;20117;-88
2021/04/10 04:32:41;;;;;;;46.85;33.13;;;;;;;;;;5017779;28;20034;-90
2021/04/10 04:35:09;;;;;;;42.00;32.53;;;;;;;;;;5024448;28;20128;-91
2021/04/10 04:37:34;;;;;;;41.58;31.88;;;;;;;;;;5024726;28;20022;-92
2021/04/10 04:40:02;;;;;;;41.95;32.17;;;;;;;;;;5007638;28;20408;-94
2021/04/10 04:42:27;;;;;;;48.80;35.53;;;;;;;;;;5037527;28;20104;-92
2021/04/10 04:44:55;;;;;;;44.35;37.03;;;;;;;;;;5037289;28;20160;-91
2021/04/10 04:47:20;;;;;;;45.88;34.13;;;;;;;;;;5036913;28;20517;-86
2021/04/10 04:49:45;;;;;;;48.88;35.90;;;;;;;;;;5028054;28;20057;-88
2021/04/10 04:52:11;;;;;;;39.90;32.15;;;;;;;;;;5026744;28;20025;-91
2021/04/10 04:54:36;;;;;;;34.75;29.15;;;;;;;;;;5000042;28;20017;-89
2021/04/10 04:57:01;;;;;;;41.42;31.65;;;;;;;;;;5030706;28;20022;-88
2021/04/10 04:59:26;;;;;;;56.72;39.60;;;;;;;;;;5019516;28;20120;-86
2021/04/10 05:01:51;;;;;;;46.05;35.40;;;;;;;;;;5019502;28;20017;-86
2021/04/10 05:04:17;;;;;;;70.20;41.20;;;;;;;;;;5036843;28;20017;-89
2021/04/10 05:06:44;;;;;;;36.53;31.23;;;;;;;;;;5026321;28;20021;-90
2021/04/10 05:09:09;;;;;;;47.75;34.50;;;;;;;;;;5017261;28;20104;-91
2021/04/10 05:11:35;;;;;;;43.53;33.83;;;;;;;;;;5020361;28;20522;-90
2021/04/10 05:14:00;;;;;;;33.72;30.13;;;;;;;;;;5031922;28;20026;-90
2021/04/10 05:16:25;;;;;;;44.33;34.90;;;;;;;;;;5016996;28;20065;-93
2021/04/10 05:18:51;;;;;;;44.17;34.85;;;;;;;;;;5016895;28;20097;-91
2021/04/10 05:21:16;;;;;;;56.20;38.53;;;;;;;;;;5016313;28;20061;-85
2021/04/10 05:23:41;;;;;;;56.25;38.80;;;;;;;;;;5016673;28;20041;-90
2021/04/10 05:26:09;;;;;;;50.17;37.67;;;;;;;;;;5016568;28;20064;-91
2021/04/10 05:28:34;;;;;;;46.20;35.45;;;;;;;;;;4999482;28;20351;-86
2021/04/10 05:31:01;;;;;;;52.42;38.63;;;;;;;;;;5016484;28;20028;-85
2021/04/10 05:33:26;;;;;;;51.78;37.90;;;;;;;;;;5016392;28;20025;-85
2021/04/10 05:35:51;;;;;;;48.33;39.03;;;;;;;;;;5005549;28;20022;-85
2021/04/10 05:38:16;;;;;;;60.20;40.97;;;;;;;;;;5004219;28;20029;-88
2021/04/10 05:40:42;;;;;;;56.85;41.45;;;;;;;;;;5008522;28;20014;-83
2021/04/10 05:43:07;;;;;;;63.38;42.90;;;;;;;;;;5036042;28;20029;-88
2021/04/10 05:45:32;;;;;;;55.15;39.60;;;;;;;;;;5035919;28;20037;-89
2021/04/10 05:47:58;;;;;;;44.40;37.22;;;;;;;;;;5015393;28;20046;-88
2021/04/10 05:50:23;;;;;;;83.53;50.17;;;;;;;;;;5001550;28;20096;-87
2021/04/10 05:52:50;;;;;;;51.40;38.13;;;;;;;;;;5016120;28;20024;-89
2021/04/10 05:55:15;;;;;;;50.40;39.70;;;;;;;;;;5016265;28;20444;-88
2021/04/10 05:57:41;;;;;;;61.03;43.05;;;;;;;;;;5018750;28;20088;-87
2021/04/10 06:00:09;;;;;;;60.10;43.13;;;;;;;;;;5001295;28;20104;-86
2021/04/10 06:02:34;;;;;;;74.53;47.63;;;;;;;;;;5006785;28;20116;-86
2021/04/10 06:05:00;;;;;;;60.65;43.28;;;;;;;;;;5023920;28;20121;-88
2021/04/10 06:07:25;;;;;;;46.70;38.50;;;;;;;;;;5030704;28;20365;-86
2021/04/10 06:09:50;;;;;;;54.00;40.78;;;;;;;;;;5017328;28;20034;-83
2021/04/10 06:12:15;;;;;;;58.47;41.90;;;;;;;;;;5015602;28;20089;-84
2021/04/10 06:14:43;;;;;;;48.88;39.20;;;;;;;;;;5015807;28;20030;-82
2021/04/10 06:17:09;;;;;;;51.17;38.75;;;;;;;;;;5028521;28;20013;-88
2021/04/10 06:19:34;;;;;;;41.53;35.58;;;;;;;;;;5030078;28;20032;-87
2021/04/10 06:21:59;;;;;;;32.75;29.08;;;;;;;;;;5028267;28;20032;-84
2021/04/10 06:24:27;;;;;;;34.53;29.30;;;;;;;;;;5024773;28;20105;-85
2021/04/10 06:26:54;;;;;;;36.33;31.65;;;;;;;;;;5001590;28;20022;-85
2021/04/10 06:29:19;;;;;;;32.50;28.90;;;;;;;;;;5025347;28;20017;-85
2021/04/10 06:31:45;;;;;;;39.10;32.15;;;;;;;;;;5019521;28;20335;-85
2021/04/10 06:34:10;;;;;;;34.25;29.30;;;;;;;;;;5025244;28;20096;-85
2021/04/10 06:36:35;;;;;;;32.92;27.73;;;;;;;;;;5030406;28;20466;-85
2021/04/10 06:39:03;;;;;;;32.28;28.67;;;;;;;;;;5027064;28;20036;-85
2021/04/10 06:41:28;;;;;;;32.97;28.23;;;;;;;;;;5026396;28;20331;-83
2021/04/10 06:43:56;;;;;;;30.38;27.08;;;;;;;;;;5028252;28;20030;-83
2021/04/10 06:46:22;;;;;;;33.00;29.40;;;;;;;;;;5032059;28;20097;-83
2021/04/10 06:48:50;;;;;;;35.83;29.10;;;;;;;;;;5025107;28;20029;-83
2021/04/10 06:51:21;;;;;;;35.13;30.55;;;;;;;;;;5008414;28;20068;-83
2021/04/10 06:53:50;;;;;;;33.25;29.63;;;;;;;;;;5027236;28;20020;-83
2021/04/10 06:56:20;;;;;;;39.40;30.92;;;;;;;;;;5028872;28;20645;-83
2021/04/10 06:59:00;;;;;;;33.70;28.48;;;;;;;;;;5032669;28;20510;-83
2021/04/10 07:01:27;;;;;;;36.55;29.38;;;;;;;;;;5027912;28;20127;-81
2021/04/10 07:03:52;;;;;;;31.77;28.38;;;;;;;;;;5005753;28;20031;-83
2021/04/10 07:06:21;;;;;;;33.20;27.48;;;;;;;;;;5034021;28;20021;-83
2021/04/10 07:08:46;;;;;;;34.05;29.65;;;;;;;;;;5031092;28;20346;-84
2021/04/10 07:11:46;;;;;;;31.08;26.80;;;;;;;;;;5029529;28;20090;-84
2021/04/10 07:14:20;;;;;;;33.38;25.92;;;;;;;;;;5027754;28;20036;-80
2021/04/10 07:16:45;;;;;;;32.33;25.73;;;;;;;;;;4999479;28;20049;-83
2021/04/10 07:19:11;;;;;;;29.40;25.33;;;;;;;;;;5011046;28;20100;-82
2021/04/10 07:21:37;;;;;;;30.35;26.40;;;;;;;;;;5022734;28;20061;-81
2021/04/10 07:24:05;;;;;;;28.42;24.02;;;;;;;;;;5021966;28;20088;-81
2021/04/10 07:26:49;;;;;;;25.42;22.00;;;;;;;;;;5030018;28;20030;-82
2021/04/10 07:29:30;;;;;;;24.30;21.63;;;;;;;;;;5019673;28;20013;-81
2021/04/10 07:31:56;;;;;;;25.48;21.30;;;;;;;;;;5033875;28;20053;-81
2021/04/10 07:34:21;;;;;;;23.88;21.17;;;;;;;;;;5019329;28;20107;-81
2021/04/10 07:37:00;;;;;;;23.65;20.98;;;;;;;;;;5031715;28;20462;-81
2021/04/10 07:39:26;;;;;;;23.58;20.77;;;;;;;;;;5014876;28;20018;-81
2021/04/10 07:42:01;;;;;;;22.98;20.50;;;;;;;;;;5032582;28;20065;-81
2021/04/10 07:44:39;;;;;;;22.73;19.10;;;;;;;;;;5032909;28;20439;-81
2021/04/10 07:47:06;;;;;;;22.88;20.40;;;;;;;;;;5015745;28;20132;-79
2021/04/10 07:49:32;;;;;;;21.90;18.63;;;;;;;;;;5033550;28;20503;-81
2021/04/10 07:51:59;;;;;;;22.80;18.90;;;;;;;;;;5033743;28;20026;-77
2021/04/10 07:54:30;;;;;;;23.10;19.40;;;;;;;;;;5033655;28;20029;-79
2021/04/10 07:56:59;;;;;;;22.70;20.40;;;;;;;;;;5033651;28;20105;-79
2021/04/10 07:59:24;;;;;;;22.08;19.70;;;;;;;;;;5033723;28;20025;-80
2021/04/10 08:01:50;;;;;;;22.80;19.58;;;;;;;;;;5033572;28;20095;-82
2021/04/10 08:04:15;;;;;;;27.02;22.55;;;;;;;;;;5016082;28;20033;-81
2021/04/10 08:06:54;;;;;;;21.50;19.20;;;;;;;;;;5033662;28;20025;-79
2021/04/10 08:09:32;;;;;;;22.42;19.30;;;;;;;;;;5033791;28;20028;-82
2021/04/10 08:12:06;;;;;;;22.08;18.77;;;;;;;;;;5016434;28;20022;-81
2021/04/10 08:14:38;;;;;;;22.08;19.48;;;;;;;;;;5033498;28;20068;-82
2021/04/10 08:17:03;;;;;;;21.98;18.98;;;;;;;;;;5033634;28;20087;-81
2021/04/10 08:19:29;;;;;;;22.60;19.77;;;;;;;;;;5033517;28;20017;-81
2021/04/10 08:21:57;;;;;;;22.85;20.15;;;;;;;;;;5033460;28;20083;-81
2021/04/10 08:24:22;;;;;;;19.33;16.70;;;;;;;;;;5033527;28;20232;-81
2021/04/10 08:26:51;;;;;;;18.83;16.80;;;;;;;;;;5033128;28;20100;-82
2021/04/10 08:29:17;;;;;;;19.17;17.27;;;;;;;;;;5033335;28;20621;-82
2021/04/10 08:31:42;;;;;;;21.58;17.85;;;;;;;;;;5033297;28;20127;-81
2021/04/10 08:34:07;;;;;;;20.15;18.00;;;;;;;;;;5033211;28;20350;-82
2021/04/10 08:36:33;;;;;;;18.15;16.27;;;;;;;;;;5033345;28;20029;-82
2021/04/10 08:38:58;;;;;;;17.30;14.52;;;;;;;;;;5033307;28;20107;-82
2021/04/10 08:41:27;;;;;;;16.58;14.80;;;;;;;;;;5033256;28;20018;-83
2021/04/10 08:43:52;;;;;;;20.83;18.58;;;;;;;;;;5033304;28;20163;-85
2021/04/10 08:46:18;;;;;;;16.48;14.88;;;;;;;;;;5033162;28;20041;-83
2021/04/10 08:48:44;;;;;;;17.25;15.00;;;;;;;;;;5013571;28;20493;-82
2021/04/10 08:51:10;;;;;;;16.88;14.93;;;;;;;;;;5013444;28;20435;-82
2021/04/10 08:53:40;;;;;;;15.45;13.85;;;;;;;;;;5013579;28;20386;-80
2021/04/10 08:56:09;;;;;;;15.25;12.98;;;;;;;;;;5016232;28;20026;-80
2021/04/10 08:58:37;;;;;;;15.85;14.23;;;;;;;;;;5016995;28;20026;-80
2021/04/10 09:01:02;;;;;;;15.70;14.02;;;;;;;;;;5016866;28;20034;-80
2021/04/10 09:03:54;;;;;;;16.60;13.70;;;;;;;;;;5016820;28;20527;-82
2021/04/10 09:06:24;;;;;;;16.02;14.30;;;;;;;;;;5012818;28;20820;-80
2021/04/10 09:08:50;;;;;;;13.95;12.00;;;;;;;;;;4999509;28;20014;-79
2021/04/10 09:11:21;;;;;;;13.98;12.27;;;;;;;;;;5016495;28;20105;-79
2021/04/10 09:13:49;;;;;;;14.43;13.00;;;;;;;;;;5016943;28;20022;-82
2021/04/10 09:16:23;;;;;;;15.55;12.77;;;;;;;;;;5017014;28;20033;-82
2021/04/10 09:18:50;;;;;;;12.43;11.13;;;;;;;;;;5016626;28;20075;-83
2021/04/10 09:21:15;;;;;;;21.70;17.75;;;;;;;;;;4999224;28;20079;-85
2021/04/10 09:23:46;;;;;;;18.48;13.43;;;;;;;;;;4999252;28;20457;-81
2021/04/10 09:26:13;;;;;;;11.13;9.98;;;;;;;;;;5011566;28;20497;-80
2021/04/10 09:28:53;;;;;;;12.15;10.20;;;;;;;;;;5014307;28;20446;-83
2021/04/10 09:31:37;;;;;;;11.60;9.32;;;;;;;;;;5022234;28;20010;-79
2021/04/10 09:34:03;;;;;;;13.48;10.45;;;;;;;;;;5035926;28;20021;-78
2021/04/10 09:36:47;;;;;;;13.52;9.82;;;;;;;;;;5021237;28;20033;-81
2021/04/10 09:39:32;;;;;;;12.82;10.75;;;;;;;;;;5032109;28;20523;-79
2021/04/10 09:42:00;;;;;;;11.85;7.90;;;;;;;;;;4972328;28;20517;-78
2021/04/10 09:44:49;;;;;;;9.98;8.20;;;;;;;;;;5012547;28;20021;-75
2021/04/10 09:47:15;;;;;;;11.13;8.32;;;;;;;;;;5011227;28;20042;-79
2021/04/10 09:49:42;;;;;;;10.48;8.82;;;;;;;;;;5024937;28;20021;-77
2021/04/10 09:52:07;;;;;;;10.73;8.32;;;;;;;;;;5030600;28;20571;-77
2021/04/10 09:54:35;;;;;;;9.57;8.57;;;;;;;;;;5047442;28;20028;-77
2021/04/10 09:57:00;;;;;;;10.45;8.65;;;;;;;;;;5039802;28;20021;-76
2021/04/10 09:59:26;;;;;;;9.98;8.40;;;;;;;;;;5040420;28;20021;-76
2021/04/10 10:01:51;;;;;;;12.13;8.85;;;;;;;;;;5030187;28;20032;-74
2021/04/10 10:04:16;;;;;;;10.67;8.67;;;;;;;;;;5038628;28;20350;-83
2021/04/10 10:06:52;;;;;;;11.45;8.80;;;;;;;;;;5039979;28;20284;-84
2021/04/10 10:09:23;;;;;;;13.38;9.95;;;;;;;;;;5019021;28;20029;-82
2021/04/10 10:11:51;;;;;;;14.82;9.52;;;;;;;;;;5030849;28;20484;-77
2021/04/10 10:14:16;;;;;;;12.93;9.35;;;;;;;;;;5047593;28;20010;-78
2021/04/10 10:16:41;;;;;;;13.57;10.02;;;;;;;;;;5014660;28;20025;-78
2021/04/10 10:19:14;;;;;;;12.02;10.00;;;;;;;;;;5029391;28;20025;-77
2021/04/10 10:21:39;;;;;;;13.10;10.98;;;;;;;;;;5024293;28;20025;-78
2021/04/10 10:24:07;;;;;;;12.88;11.20;;;;;;;;;;5015873;28;20034;-78
2021/04/10 10:26:40;;;;;;;14.85;11.60;;;;;;;;;;5045061;28;20406;-77
2021/04/10 10:29:08;;;;;;;15.25;12.68;;;;;;;;;;5038533;28;20028;-78
2021/04/10 10:31:53;;;;;;;11.88;10.32;;;;;;;;;;5047680;28;20024;-78
2021/04/10 10:34:22;;;;;;;14.68;12.55;;;;;;;;;;5029904;28;20339;-77
2021/04/10 10:36:49;;;;;;;14.02;12.45;;;;;;;;;;5036035;28;20032;-78
2021/04/10 10:39:27;;;;;;;16.02;12.82;;;;;;;;;;5027197;28;20327;-77
2021/04/10 10:41:53;;;;;;;14.75;12.65;;;;;;;;;;5024280;28;20037;-78
2021/04/10 10:44:34;;;;;;;13.95;12.55;;;;;;;;;;5039299;28;20434;-77
2021/04/10 10:47:08;;;;;;;15.32;12.98;;;;;;;;;;5010408;28;20176;-77
2021/04/10 10:49:34;;;;;;;19.55;14.50;;;;;;;;;;5026617;28;20101;-77
2021/04/10 10:52:00;;;;;;;15.48;13.07;;;;;;;;;;5027606;28;20088;-77
2021/04/10 10:54:29;;;;;;;18.73;14.50;;;;;;;;;;5025473;28;20028;-77
2021/04/10 10:56:56;;;;;;;17.75;15.85;;;;;;;;;;5026781;28;20010;-77
2021/04/10 10:59:25;;;;;;;20.38;16.77;;;;;;;;;;5023472;28;20022;-77
2021/04/10 11:01:53;;;;;;;19.70;16.77;;;;;;;;;;5025553;28;20026;-77
2021/04/10 11:04:20;;;;;;;19.75;17.48;;;;;;;;;;5024807;28;20097;-77
2021/04/10 11:06:50;;;;;;;18.35;16.40;;;;;;;;;;5011746;28;20022;-77
2021/04/10 11:09:21;;;;;;;18.85;16.65;;;;;;;;;;5023247;28;20032;-77
2021/04/10 11:11:47;;;;;;;18.98;17.00;;;;;;;;;;5025403;28;20053;-77
2021/04/10 11:14:25;;;;;;;20.70;18.13;;;;;;;;;;5025453;28;20021;-77
2021/04/10 11:16:53;;;;;;;20.17;17.70;;;;;;;;;;5033655;28;20104;-78
2021/04/10 11:22:26;;;;;;;19.67;17.10;;;;;;;;;;5037833;28;20029;-77
2021/04/10 11:24:52;;;;;;;19.40;16.65;;;;;;;;;;5036817;28;20084;-77
2021/04/10 11:27:21;;;;;;;22.50;18.58;;;;;;;;;;5048908;28;20045;-77
2021/04/10 11:30:08;;;;;;;21.88;18.05;;;;;;;;;;5042675;28;20013;-77
2021/04/10 11:32:37;;;;;;;21.02;18.83;;;;;;;;;;5017574;28;20113;-78
2021/04/10 11:35:06;;;;;;;20.95;18.73;;;;;;;;;;5049709;28;20028;-78
2021/04/10 11:37:34;;;;;;;23.23;19.13;;;;;;;;;;5040582;28;20029;-77
2021/04/10 11:40:04;;;;;;;26.30;19.63;;;;;;;;;;5042967;28;20025;-77
2021/04/10 11:42:43;;;;;;;24.35;20.42;;;;;;;;;;5048518;28;20389;-77
2021/04/10 11:45:09;;;;;;;22.38;19.85;;;;;;;;;;5017327;28;20021;-77
2021/04/10 11:47:35;;;;;;;26.73;22.27;;;;;;;;;;5040869;28;20055;-77
2021/04/10 11:50:05;;;;;;;26.48;20.20;;;;;;;;;;5042544;28;20032;-78
2021/04/10 11:52:33;;;;;;;25.70;20.83;;;;;;;;;;5048498;28;20037;-78
2021/04/10 11:55:06;;;;;;;23.85;19.80;;;;;;;;;;5036756;28;20030;-77
2021/04/10 11:57:33;;;;;;;22.75;19.40;;;;;;;;;;5046393;28;20028;-76
2021/04/10 12:00:09;;;;;;;22.25;18.15;;;;;;;;;;5044004;28;20032;-80
2021/04/10 12:02:37;;;;;;;21.15;18.95;;;;;;;;;;5037675;28;20036;-80
2021/04/10 12:05:43;;;;;;;19.27;17.27;;;;;;;;;;5016812;28;20426;-77
2021/04/10 12:08:44;;;;;;;19.63;16.50;;;;;;;;;;4984107;28;20073;-77
2021/04/10 12:11:09;;;;;;;17.73;15.85;;;;;;;;;;4969416;28;20145;-78
2021/04/10 12:13:36;;;;;;;20.23;16.65;;;;;;;;;;4960353;28;20039;-77
2021/04/10 12:16:01;;;;;;;17.08;15.23;;;;;;;;;;4962511;28;20348;-77
2021/04/10 12:18:29;;;;;;;21.48;15.93;;;;;;;;;;4968706;28;20051;-76
2021/04/10 12:20:58;;;;;;;20.67;16.98;;;;;;;;;;5033673;28;20465;-77
2021/04/10 12:23:23;;;;;;;18.02;15.35;;;;;;;;;;5047733;28;20382;-77
2021/04/10 12:25:49;;;;;;;15.30;13.15;;;;;;;;;;5042632;28;20056;-78
2021/04/10 12:28:15;;;;;;;18.50;15.07;;;;;;;;;;5040713;28;20053;-76
2021/04/10 12:30:41;;;;;;;18.70;14.65;;;;;;;;;;5052154;28;20112;-79
2021/04/10 12:33:06;;;;;;;17.42;15.63;;;;;;;;;;5040662;28;20092;-78
2021/04/10 12:35:31;;;;;;;17.52;15.65;;;;;;;;;;5039774;28;20017;-77
2021/04/10 12:37:56;;;;;;;20.20;17.48;;;;;;;;;;5047226;28;20017;-77
2021/04/10 12:40:22;;;;;;;15.30;13.70;;;;;;;;;;5051052;28;20036;-77
2021/04/10 12:42:50;;;;;;;18.45;14.88;;;;;;;;;;5039355;28;20033;-77
2021/04/10 12:45:16;;;;;;;15.82;13.93;;;;;;;;;;5019082;28;20025;-77
2021/04/10 12:47:43;;;;;;;15.45;13.52;;;;;;;;;;5036568;28;20072;-77
2021/04/10 12:50:09;;;;;;;18.20;14.18;;;;;;;;;;5037349;28;20036;-77
2021/04/10 12:52:38;;;;;;;16.23;13.68;;;;;;;;;;5036903;28;20021;-79
2021/04/10 12:55:06;;;;;;;13.73;12.30;;;;;;;;;;5019374;28;20026;-80
2021/04/10 12:57:32;;;;;;;12.93;11.43;;;;;;;;;;5019507;28;20025;-79
2021/04/10 12:59:57;;;;;;;15.15;12.60;;;;;;;;;;5036847;28;20028;-79
2021/04/10 13:02:22;;;;;;;16.60;12.77;;;;;;;;;;5036816;28;20029;-77
2021/04/10 13:04:48;;;;;;;11.63;10.40;;;;;;;;;;5036759;28;20354;-78
2021/04/10 13:07:13;;;;;;;12.65;11.32;;;;;;;;;;5036718;28;20024;-78
2021/04/10 13:09:43;;;;;;;20.02;13.30;;;;;;;;;;5036618;28;20033;-78
2021/04/10 13:12:08;;;;;;;13.15;11.75;;;;;;;;;;5036676;28;20017;-79
2021/04/10 13:14:36;;;;;;;14.88;12.30;;;;;;;;;;5036449;28;20079;-78
2021/04/10 13:17:01;;;;;;;14.55;10.57;;;;;;;;;;5019050;28;20026;-78
2021/04/10 13:19:26;;;;;;;13.05;10.52;;;;;;;;;;5035294;28;20499;-77
2021/04/10 13:21:54;;;;;;;15.35;10.00;;;;;;;;;;5031924;28;20018;-77
2021/04/10 13:24:28;;;;;;;12.35;10.20;;;;;;;;;;5035400;28;20060;-76
2021/04/10 13:26:59;;;;;;;15.18;12.07;;;;;;;;;;5034929;28;20021;-76
2021/04/10 13:29:24;;;;;;;14.05;11.45;;;;;;;;;;5047091;28;20013;-77
2021/04/10 13:31:50;;;;;;;13.93;10.68;;;;;;;;;;5031023;28;20048;-76
2021/04/10 13:34:15;;;;;;;14.02;9.13;;;;;;;;;;5040049;28;20029;-80
2021/04/10 13:36:41;;;;;;;9.95;8.07;;;;;;;;;;5052618;28;20351;-80
2021/04/10 13:39:08;;;;;;;7.60;6.78;;;;;;;;;;5042574;28;20087;-77
2021/04/10 13:41:33;;;;;;;10.32;7.30;;;;;;;;;;5024467;28;20021;-80
2021/04/10 13:44:01;;;;;;;8.88;6.80;;;;;;;;;;5032074;28;20047;-81
2021/04/10 13:46:26;;;;;;;8.32;6.85;;;;;;;;;;5039259;28;20101;-79
2021/04/10 13:48:52;;;;;;;6.88;6.18;;;;;;;;;;5051298;28;20125;-79
2021/04/10 13:51:17;;;;;;;8.48;6.60;;;;;;;;;;5043791;28;20016;-79
2021/04/10 13:53:44;;;;;;;6.70;6.03;;;;;;;;;;5044428;28;20053;-79
2021/04/10 13:56:10;;;;;;;7.60;6.30;;;;;;;;;;5035143;28;20470;-82
2021/04/10 13:58:38;;;;;;;6.95;6.28;;;;;;;;;;5032329;28;20053;-82
2021/04/10 14:01:03;;;;;;;7.65;6.35;;;;;;;;;;5029816;28;20031;-78
2021/04/10 14:03:29;;;;;;;7.60;6.43;;;;;;;;;;5035056;28;20018;-77
2021/04/10 14:05:57;;;;;;;9.18;6.18;;;;;;;;;;5035191;28;20405;-79
2021/04/10 14:08:25;;;;;;;7.90;6.03;;;;;;;;;;5014770;28;20427;-76
2021/04/10 14:10:53;;;;;;;10.23;7.05;;;;;;;;;;5038387;28;20030;-77
2021/04/10 14:13:20;;;;;;;8.50;6.35;;;;;;;;;;5023976;28;20382;-76
2021/04/10 14:15:48;;;;;;;7.75;6.40;;;;;;;;;;5024870;28;20439;-78
2021/04/10 14:18:13;;;;;;;6.32;5.65;;;;;;;;;;5031716;28;20024;-76
2021/04/10 14:20:40;;;;;;;6.22;5.63;;;;;;;;;;5038527;28;20362;-75
2021/04/10 14:23:07;;;;;;;6.72;6.00;;;;;;;;;;5050910;28;20026;-81
2021/04/10 14:25:33;;;;;;;7.18;5.47;;;;;;;;;;5042702;28;20032;-76
2021/04/10 14:27:59;;;;;;;6.78;5.75;;;;;;;;;;5022865;28;20037;-76